createdAt,value
2023-02-11T00:01:34.988Z,100855.47
2023-02-11T00:04:01.955Z,100841.31
2023-02-11T00:06:29.066Z,100838.78
2023-02-11T00:08:56.265Z,100838.78
2023-02-11T00:11:23.240Z,100841.53
2023-02-11T00:13:49.583Z,100834.44
2023-02-11T00:16:17.318Z,100845.19
2023-02-11T00:18:43.714Z,100840.78
2023-02-11T00:21:14.345Z,100840.78
2023-02-11T00:23:40.739Z,100824.81
2023-02-11T00:26:13.001Z,100809.00
2023-02-11T00:28:39.409Z,100795.75
2023-02-11T00:31:05.815Z,100800.25
2023-02-11T00:33:32.268Z,100807.34
2023-02-11T00:35:58.645Z,100809.19
2023-02-11T00:38:25.030Z,100799.47
2023-02-11T00:40:51.413Z,100797.75
2023-02-11T00:43:17.799Z,100801.25
2023-02-11T00:45:44.172Z,100787.16
2023-02-11T00:48:10.750Z,100778.22
2023-02-11T00:50:37.111Z,100771.31
2023-02-11T00:53:03.493Z,100758.16
2023-02-11T00:55:29.851Z,100764.44
2023-02-11T00:57:56.368Z,100760.03
2023-02-11T01:00:22.818Z,100745.16
2023-02-11T01:02:49.165Z,100728.41
2023-02-11T01:05:15.931Z,100732.84
2023-02-11T01:07:42.363Z,100741.72
2023-02-11T01:10:08.946Z,100738.22
2023-02-11T01:12:36.545Z,100740.81
2023-02-11T01:15:03.979Z,100744.38
2023-02-11T01:17:30.336Z,100756.72
2023-02-11T01:19:56.746Z,100752.34
2023-02-11T01:22:23.092Z,100766.50
2023-02-11T01:24:49.574Z,100767.38
2023-02-11T01:27:15.934Z,100770.88
2023-02-11T01:29:42.294Z,100772.66
2023-02-11T01:32:08.677Z,100772.72
2023-02-11T01:34:35.114Z,100767.50
2023-02-11T01:37:01.548Z,100755.09
2023-02-11T01:39:27.988Z,100748.97
2023-02-11T01:41:54.735Z,100741.03
2023-02-11T01:44:25.701Z,100748.19
2023-02-11T01:46:52.250Z,100740.25
2023-02-11T01:49:21.519Z,100722.63
2023-02-11T01:52:10.381Z,100726.22
2023-02-11T01:54:58.798Z,100725.34
2023-02-11T01:57:28.834Z,100712.09
2023-02-11T02:00:05.250Z,100705.06
2023-02-11T02:02:42.764Z,100705.13
2023-02-11T02:05:14.428Z,100706.00
2023-02-11T02:08:04.003Z,100710.50
2023-02-11T02:10:31.237Z,100713.16
2023-02-11T02:12:57.838Z,100704.38
2023-02-11T02:15:34.301Z,100707.91
2023-02-11T02:18:08.948Z,100715.06
2023-02-11T02:20:50.509Z,100714.25
2023-02-11T02:23:29.171Z,100717.81
2023-02-11T02:26:09.799Z,100717.88
2023-02-11T02:28:54.506Z,100714.34
2023-02-11T02:31:39.580Z,100688.75
2023-02-11T02:34:32.052Z,100686.97
2023-02-11T02:37:07.072Z,100688.78
2023-02-11T02:39:35.711Z,100691.50
2023-02-11T02:42:02.505Z,100688.84
2023-02-11T02:44:29.782Z,100685.28
2023-02-11T02:46:56.340Z,100688.84
2023-02-11T02:49:22.782Z,100680.94
2023-02-11T02:51:49.145Z,100684.50
2023-02-11T02:54:18.557Z,100683.66
2023-02-11T02:57:03.614Z,100683.69
2023-02-11T02:59:39.199Z,100685.47
2023-02-11T03:02:24.353Z,100688.09
2023-02-11T03:04:53.875Z,100689.03
2023-02-11T03:07:20.174Z,100695.22
2023-02-11T03:09:54.321Z,100688.16
2023-02-11T03:12:21.875Z,100681.97
2023-02-11T03:14:50.233Z,100666.97
2023-02-11T03:17:16.642Z,100667.84
2023-02-11T03:19:44.306Z,100663.44
2023-02-11T03:22:13.261Z,100659.91
2023-02-11T03:24:41.017Z,100658.13
2023-02-11T03:27:12.479Z,100650.19
2023-02-11T03:29:38.798Z,100647.53
2023-02-11T03:32:16.061Z,100646.66
2023-02-11T03:34:48.935Z,100641.38
2023-02-11T03:37:22.092Z,100651.97
2023-02-11T03:39:54.562Z,100644.88
2023-02-11T03:42:22.155Z,100637.84
2023-02-11T03:44:52.507Z,100627.19
2023-02-11T03:47:21.092Z,100628.09
2023-02-11T03:49:49.691Z,100621.84
2023-02-11T03:52:18.007Z,100624.50
2023-02-11T03:54:46.036Z,100610.34
2023-02-11T03:57:12.415Z,100610.34
2023-02-11T03:59:51.059Z,100618.28
2023-02-11T04:02:17.494Z,100613.88
2023-02-11T04:04:44.109Z,100611.22
2023-02-11T04:07:11.951Z,100615.66
2023-02-11T04:09:38.473Z,100615.66
2023-02-11T04:12:05.054Z,100609.47
2023-02-11T04:14:31.439Z,100613.88
2023-02-11T04:16:57.784Z,100620.09
2023-02-11T04:19:24.138Z,100613.00
2023-02-11T04:21:50.513Z,100605.06
2023-02-11T04:24:16.927Z,100605.97
2023-02-11T04:26:43.353Z,100613.91
2023-02-11T04:29:09.695Z,100621.00
2023-02-11T04:31:36.114Z,100611.25
2023-02-11T04:34:02.567Z,100608.63
2023-02-11T04:36:28.994Z,100611.25
2023-02-11T04:38:55.350Z,100618.34
2023-02-11T04:41:21.733Z,100617.44
2023-02-11T04:43:48.117Z,100626.34
2023-02-11T04:46:14.605Z,100624.56
2023-02-11T04:48:41.024Z,100636.09
2023-02-11T04:51:07.415Z,100639.63
2023-02-11T04:53:33.840Z,100632.56
2023-02-11T04:56:00.348Z,100638.75
2023-02-11T04:58:26.754Z,100630.81
2023-02-11T05:00:53.347Z,100628.16
2023-02-11T05:03:19.753Z,100625.50
2023-02-11T05:05:46.377Z,100622.84
2023-02-11T05:08:12.791Z,100621.94
2023-02-11T05:10:39.549Z,100631.72
2023-02-11T05:13:05.935Z,100634.34
2023-02-11T05:15:32.355Z,100632.53
2023-02-11T05:17:58.754Z,100621.06
2023-02-11T05:20:25.142Z,100629.88
2023-02-11T05:22:51.731Z,100614.78
2023-02-11T05:25:18.592Z,100615.66
2023-02-11T05:27:44.990Z,100612.13
2023-02-11T05:30:11.696Z,100605.94
2023-02-11T05:32:38.167Z,100600.63
2023-02-11T05:35:04.718Z,100605.03
2023-02-11T05:37:31.170Z,100602.38
2023-02-11T05:39:57.550Z,100603.28
2023-02-11T05:42:23.914Z,100593.53
2023-02-11T05:44:50.751Z,100593.53
2023-02-11T05:47:17.248Z,100603.28
2023-02-11T05:49:43.593Z,100604.16
2023-02-11T05:52:09.990Z,100599.75
2023-02-11T05:54:36.342Z,100601.53
2023-02-11T05:57:02.745Z,100598.88
2023-02-11T05:59:29.125Z,100591.78
2023-02-11T06:01:55.555Z,100590.00
2023-02-11T06:04:21.960Z,100585.56
2023-02-11T06:06:48.492Z,100577.63
2023-02-11T06:09:14.829Z,100569.63
2023-02-11T06:11:41.189Z,100579.38
2023-02-11T06:14:07.598Z,100572.28
2023-02-11T06:16:34.052Z,100568.69
2023-02-11T06:19:00.454Z,100565.16
2023-02-11T06:21:42.478Z,100560.75
2023-02-11T06:24:09.496Z,100566.94
2023-02-11T06:26:35.933Z,100559.00
2023-02-11T06:29:02.280Z,100560.75
2023-02-11T06:31:28.739Z,100558.97
2023-02-11T06:33:55.119Z,100558.97
2023-02-11T06:36:22.185Z,100572.25
2023-02-11T06:38:49.068Z,100570.47
2023-02-11T06:41:16.492Z,100567.81
2023-02-11T06:43:43.374Z,100570.50
2023-02-11T06:46:09.864Z,100571.38
2023-02-11T06:48:36.551Z,100565.19
2023-02-11T06:51:04.907Z,100565.19
2023-02-11T06:53:32.108Z,100562.56
2023-02-11T06:56:02.370Z,100565.22
2023-02-11T06:58:28.758Z,100559.91
2023-02-11T07:00:55.091Z,100567.03
2023-02-11T07:03:21.588Z,100553.75
2023-02-11T07:05:47.998Z,100555.53
2023-02-11T07:08:14.422Z,100559.09
2023-02-11T07:10:40.945Z,100560.88
2023-02-11T07:13:07.334Z,100563.56
2023-02-11T07:15:33.705Z,100560.00
2023-02-11T07:18:00.045Z,100572.44
2023-02-11T07:20:26.493Z,100568.00
2023-02-11T07:22:52.901Z,100581.25
2023-02-11T07:25:19.312Z,100586.56
2023-02-11T07:27:45.655Z,100583.91
2023-02-11T07:30:12.454Z,100583.91
2023-02-11T07:32:38.855Z,100588.38
2023-02-11T07:35:05.496Z,100579.50
2023-02-11T07:37:33.530Z,100579.53
2023-02-11T07:39:59.872Z,100587.47
2023-02-11T07:42:26.246Z,100582.13
2023-02-11T07:44:52.589Z,100595.41
2023-02-11T07:47:18.984Z,100589.19
2023-02-11T07:49:45.497Z,100585.66
2023-02-11T07:52:11.840Z,100596.28
2023-02-11T07:54:38.217Z,100594.50
2023-02-11T07:57:04.574Z,100585.66
2023-02-11T07:59:31.003Z,100596.25
2023-02-11T08:01:57.337Z,100592.69
2023-02-11T08:04:23.771Z,100598.00
2023-02-11T08:06:52.898Z,100582.06
2023-02-11T08:09:19.376Z,100590.00
2023-02-11T08:11:45.748Z,100592.69
2023-02-11T08:14:12.283Z,100590.88
2023-02-11T08:16:41.671Z,100590.00
2023-02-11T08:19:10.919Z,100589.13
2023-02-11T08:21:37.813Z,100590.03
2023-02-11T08:24:04.303Z,100582.94
2023-02-11T08:26:37.420Z,100574.09
2023-02-11T08:29:07.041Z,100574.13
2023-02-11T08:31:35.108Z,100575.03
2023-02-11T08:34:02.502Z,100565.28
2023-02-11T08:36:30.126Z,100575.09
2023-02-11T08:39:12.152Z,100576.84
2023-02-11T08:41:43.740Z,100567.13
2023-02-11T08:44:10.413Z,100560.06
2023-02-11T08:46:36.742Z,100560.06
2023-02-11T08:49:03.101Z,100566.28
2023-02-11T08:51:32.992Z,100572.47
2023-02-11T08:53:59.900Z,100577.78
2023-02-11T08:56:26.785Z,100578.72
2023-02-11T08:58:53.657Z,100582.25
2023-02-11T09:01:22.988Z,100588.44
2023-02-11T09:03:49.614Z,100591.13
2023-02-11T09:06:17.662Z,100599.97
2023-02-11T09:08:46.431Z,100593.78
2023-02-11T09:11:13.256Z,100588.47
2023-02-11T09:13:40.958Z,100581.38
2023-02-11T09:16:07.947Z,100589.38
2023-02-11T09:18:34.503Z,100600.88
2023-02-11T09:21:04.927Z,100589.38
2023-02-11T09:23:32.029Z,100599.13
2023-02-11T09:25:58.381Z,100599.13
2023-02-11T09:28:24.773Z,100610.63
2023-02-11T09:30:51.531Z,100611.53
2023-02-11T09:33:18.183Z,100615.03
2023-02-11T09:35:44.510Z,100615.94
2023-02-11T09:38:10.946Z,100613.28
2023-02-11T09:40:37.304Z,100619.47
2023-02-11T09:43:05.979Z,100603.53
2023-02-11T09:45:32.629Z,100617.69
2023-02-11T09:48:11.263Z,100602.66
2023-02-11T09:50:42.541Z,100606.22
2023-02-11T09:53:17.830Z,100610.63
2023-02-11T09:55:46.432Z,100608.88
2023-02-11T09:58:17.076Z,100602.66
2023-02-11T10:00:46.709Z,100598.22
2023-02-11T10:03:13.202Z,100607.97
2023-02-11T10:05:58.319Z,100599.09
2023-02-11T10:08:39.904Z,100594.69
2023-02-11T10:11:06.197Z,100599.97
2023-02-11T10:13:42.575Z,100588.50
2023-02-11T10:16:09.033Z,100592.94
2023-02-11T10:18:35.422Z,100584.06
2023-02-11T10:21:01.774Z,100578.72
2023-02-11T10:23:35.089Z,100580.50
2023-02-11T10:26:02.288Z,100586.72
2023-02-11T10:28:30.538Z,100579.59
2023-02-11T10:31:02.159Z,100581.38
2023-02-11T10:33:36.750Z,100599.09
2023-02-11T10:36:03.896Z,100599.97
2023-02-11T10:38:30.752Z,100586.66
2023-02-11T10:40:57.196Z,100581.34
2023-02-11T10:43:26.262Z,100591.06
2023-02-11T10:45:53.204Z,100586.66
2023-02-11T10:48:39.156Z,100572.47
2023-02-11T10:51:24.337Z,100566.25
2023-02-11T10:54:19.390Z,100562.69
2023-02-11T10:56:50.525Z,100560.03
2023-02-11T10:59:21.479Z,100577.78
2023-02-11T11:01:52.959Z,100581.34
2023-02-11T11:04:38.291Z,100573.34
2023-02-11T11:07:11.986Z,100564.47
2023-02-11T11:09:59.727Z,100563.56
2023-02-11T11:12:27.687Z,100569.78
2023-02-11T11:14:58.468Z,100579.53
2023-02-11T11:17:29.021Z,100583.97
2023-02-11T11:20:14.641Z,100574.19
2023-02-11T11:22:42.500Z,100568.88
2023-02-11T11:25:22.340Z,100566.22
2023-02-11T11:27:50.621Z,100575.97
2023-02-11T11:30:17.653Z,100580.41
2023-02-11T11:32:44.610Z,100560.91
2023-02-11T11:35:23.255Z,100564.44
2023-02-11T11:37:53.248Z,100573.31
2023-02-11T11:40:19.598Z,100557.34
2023-02-11T11:42:45.913Z,100560.00
2023-02-11T11:45:15.316Z,100570.66
2023-02-11T11:48:00.517Z,100575.06
2023-02-11T11:50:39.807Z,100579.47
2023-02-11T11:53:15.294Z,100578.63
2023-02-11T11:55:51.421Z,100583.03
2023-02-11T11:58:20.239Z,100582.16
2023-02-11T12:01:10.060Z,100573.28
2023-02-11T12:03:39.587Z,100583.03
2023-02-11T12:06:24.875Z,100573.28
2023-02-11T12:09:02.989Z,100570.63
2023-02-11T12:11:48.076Z,100570.63
2023-02-11T12:14:30.407Z,100567.06
2023-02-11T12:17:02.389Z,100572.41
2023-02-11T12:19:28.737Z,100575.97
2023-02-11T12:21:55.051Z,100578.59
2023-02-11T12:24:29.568Z,100580.34
2023-02-11T12:27:11.338Z,100577.69
2023-02-11T12:29:43.982Z,100579.50
2023-02-11T12:32:13.440Z,100567.06
2023-02-11T12:34:42.564Z,100577.72
2023-02-11T12:37:31.198Z,100580.34
2023-02-11T12:40:13.365Z,100594.53
2023-02-11T12:43:02.694Z,100581.22
2023-02-11T12:45:43.308Z,100584.75
2023-02-11T12:48:28.524Z,100578.56
2023-02-11T12:51:05.576Z,100568.78
2023-02-11T12:53:47.197Z,100573.25
2023-02-11T12:56:20.523Z,100577.66
2023-02-11T12:58:47.608Z,100573.25
2023-02-11T13:01:20.688Z,100570.59
2023-02-11T13:03:50.445Z,100559.94
2023-02-11T13:06:20.401Z,100561.72
2023-02-11T13:09:07.117Z,100549.31
2023-02-11T13:11:38.700Z,100551.97
2023-02-11T13:14:15.313Z,100548.41
2023-02-11T13:16:46.183Z,100544.88
2023-02-11T13:19:12.634Z,100553.72
2023-02-11T13:21:49.640Z,100549.28
2023-02-11T13:24:15.966Z,100539.56
2023-02-11T13:26:54.242Z,100536.88
2023-02-11T13:29:49.553Z,100531.53
2023-02-11T13:32:15.988Z,100532.41
2023-02-11T13:34:42.365Z,100538.63
2023-02-11T13:37:17.424Z,100527.09
2023-02-11T13:39:55.390Z,100536.84
2023-02-11T13:42:21.864Z,100531.53
2023-02-11T13:44:48.425Z,100527.97
2023-02-11T13:47:30.222Z,100535.09
2023-02-11T13:49:57.320Z,100540.41
2023-02-11T13:52:37.343Z,100535.94
2023-02-11T13:55:14.815Z,100538.63
2023-02-11T13:57:41.785Z,100535.94
2023-02-11T14:00:26.358Z,100536.78
2023-02-11T14:03:29.979Z,100535.03
2023-02-11T14:06:27.047Z,100540.38
2023-02-11T14:08:59.132Z,100543.00
2023-02-11T14:11:40.872Z,100544.81
2023-02-11T14:14:13.444Z,100535.91
2023-02-11T14:16:58.440Z,100543.00
2023-02-11T14:19:30.674Z,100543.88
2023-02-11T14:22:02.334Z,100556.28
2023-02-11T14:24:28.655Z,100550.94
2023-02-11T14:27:01.510Z,100556.25
2023-02-11T14:29:27.814Z,100558.03
2023-02-11T14:32:05.763Z,100551.81
2023-02-11T14:34:53.515Z,100563.34
2023-02-11T14:37:29.999Z,100559.78
2023-02-11T14:40:15.772Z,100557.13
2023-02-11T14:42:42.266Z,100556.22
2023-02-11T14:45:11.127Z,100549.97
2023-02-11T14:47:40.514Z,100549.06
2023-02-11T14:50:09.876Z,100554.41
2023-02-11T14:52:37.617Z,100534.94
2023-02-11T14:55:07.676Z,100550.91
2023-02-11T14:57:34.115Z,100550.91
2023-02-11T15:00:02.857Z,100549.97
2023-02-11T15:02:32.459Z,100552.63
2023-02-11T15:05:34.397Z,100551.75
2023-02-11T15:08:02.443Z,100550.84
2023-02-11T15:10:34.949Z,100546.41
2023-02-11T15:13:02.309Z,100549.09
2023-02-11T15:15:29.614Z,100550.88
2023-02-11T15:17:58.962Z,100553.53
2023-02-11T15:20:26.787Z,100552.63
2023-02-11T15:22:56.466Z,100554.41
2023-02-11T15:25:23.880Z,100565.97
2023-02-11T15:27:52.320Z,100565.97
2023-02-11T15:30:21.524Z,100560.66
2023-02-11T15:32:51.990Z,100571.31
2023-02-11T15:35:18.628Z,100562.44
2023-02-11T15:37:45.229Z,100572.16
2023-02-11T15:40:15.213Z,100568.66
2023-02-11T15:42:53.587Z,100558.91
2023-02-11T15:45:20.591Z,100560.69
2023-02-11T15:47:49.478Z,100557.13
2023-02-11T15:50:20.047Z,100559.78
2023-02-11T15:52:47.718Z,100574.88
2023-02-11T15:55:15.882Z,100573.13
2023-02-11T15:57:45.502Z,100579.31
2023-02-11T16:00:16.240Z,100584.63
2023-02-11T16:02:45.273Z,100584.59
2023-02-11T16:05:27.151Z,100575.72
2023-02-11T16:07:53.551Z,100581.94
2023-02-11T16:10:19.899Z,100590.81
2023-02-11T16:13:17.844Z,100582.88
2023-02-11T16:15:46.159Z,100581.97
2023-02-11T16:18:14.547Z,100581.94
2023-02-11T16:20:41.213Z,100585.47
2023-02-11T16:23:07.913Z,100593.50
2023-02-11T16:25:37.368Z,100605.00
2023-02-11T16:28:03.986Z,100600.56
2023-02-11T16:30:38.073Z,100602.34
2023-02-11T16:33:08.608Z,100611.25
2023-02-11T16:35:34.949Z,100604.19
2023-02-11T16:40:40.622Z,100607.75
2023-02-11T16:43:06.992Z,100606.84
2023-02-11T16:45:36.846Z,100602.44
2023-02-11T16:48:03.379Z,100598.03
2023-02-11T16:50:30.088Z,100601.59
2023-02-11T16:52:56.469Z,100606.91
2023-02-11T16:55:22.804Z,100614.91
2023-02-11T16:57:49.228Z,100625.56
2023-02-11T17:00:16.082Z,100622.03
2023-02-11T17:02:42.509Z,100626.47
2023-02-11T17:05:15.497Z,100623.81
2023-02-11T17:07:41.842Z,100623.81
2023-02-11T17:10:14.884Z,100631.81
2023-02-11T17:12:41.239Z,100628.28
2023-02-11T17:15:07.767Z,100642.47
2023-02-11T17:17:34.178Z,100641.59
2023-02-11T17:20:00.581Z,100639.81
2023-02-11T17:22:27.039Z,100646.91
2023-02-11T17:24:55.867Z,100654.03
2023-02-11T17:27:22.233Z,100655.78
2023-02-11T17:29:48.629Z,100659.34
2023-02-11T17:32:15.085Z,100654.91
2023-02-11T17:34:41.447Z,100661.13
2023-02-11T17:37:09.378Z,100647.84
2023-02-11T17:39:36.756Z,100643.41
2023-02-11T17:42:03.211Z,100654.03
2023-02-11T17:44:29.551Z,100645.16
2023-02-11T17:46:55.941Z,100656.69
2023-02-11T17:49:22.279Z,100661.13
2023-02-11T17:51:48.761Z,100661.16
2023-02-11T17:54:16.647Z,100668.22
2023-02-11T17:56:43.541Z,100672.66
2023-02-11T17:59:10.740Z,100673.56
2023-02-11T18:04:39.150Z,100685.97
2023-02-11T18:07:06.048Z,100689.50
2023-02-11T18:09:43.026Z,100702.84
2023-02-11T18:12:10.789Z,100708.13
2023-02-11T18:14:42.953Z,100712.56
2023-02-11T18:17:09.326Z,100707.25
2023-02-11T18:19:36.635Z,100700.16
2023-02-11T18:22:04.308Z,100707.25
2023-02-11T18:24:30.829Z,100719.69
2023-02-11T18:26:57.192Z,100711.69
2023-02-11T18:29:23.552Z,100714.38
2023-02-11T18:31:49.939Z,100707.25
2023-02-11T18:34:17.037Z,100709.91
2023-02-11T18:36:43.601Z,100715.22
2023-02-11T18:39:09.968Z,100712.56
2023-02-11T18:41:36.365Z,100725.00
2023-02-11T18:44:04.630Z,100722.31
2023-02-11T18:46:31.371Z,100732.06
2023-02-11T18:48:57.793Z,100733.84
2023-02-11T18:51:24.350Z,100733.84
2023-02-11T18:53:50.755Z,100734.75
2023-02-11T18:56:18.752Z,100747.16
2023-02-11T18:58:45.248Z,100742.75
2023-02-11T19:01:11.692Z,100746.28
2023-02-11T19:03:38.141Z,100758.69
2023-02-11T19:06:04.666Z,100753.38
2023-02-11T19:08:31.168Z,100753.38
2023-02-11T19:10:57.524Z,100750.72
2023-02-11T19:13:23.910Z,100759.59
2023-02-11T19:15:50.453Z,100766.66
2023-02-11T19:18:17.005Z,100756.94
2023-02-11T19:20:44.142Z,100762.25
2023-02-11T19:23:10.913Z,100773.78
2023-02-11T19:25:37.535Z,100777.31
2023-02-11T19:28:04.037Z,100787.06
2023-02-11T19:30:30.641Z,100790.63
2023-02-11T19:32:57.760Z,100785.28
2023-02-11T19:35:24.748Z,100787.09
2023-02-11T19:37:51.212Z,100790.66
2023-02-11T19:40:18.178Z,100792.41
2023-02-11T19:42:44.549Z,100791.50
2023-02-11T19:45:11.026Z,100786.19
2023-02-11T19:47:37.451Z,100786.19
2023-02-11T19:50:04.760Z,100789.72
2023-02-11T19:52:31.308Z,100793.28
2023-02-11T19:54:57.669Z,100794.16
2023-02-11T19:57:24.014Z,100803.94
2023-02-11T19:59:50.901Z,100803.06
2023-02-11T20:02:17.303Z,100796.81
2023-02-11T20:04:43.710Z,100811.94
2023-02-11T20:07:10.038Z,100819.00
2023-02-11T20:09:36.398Z,100823.47
2023-02-11T20:12:02.894Z,100826.09
2023-02-11T20:14:29.261Z,100829.66
2023-02-11T20:16:55.599Z,100841.22
2023-02-11T20:19:22.341Z,100835.88
2023-02-11T20:21:51.116Z,100829.66
2023-02-11T20:24:18.058Z,100828.78
2023-02-11T20:26:45.264Z,100835.00
2023-02-11T20:29:11.656Z,100830.53
2023-02-11T20:31:38.100Z,100833.22
2023-02-11T20:34:04.655Z,100829.66
2023-02-11T20:36:32.381Z,100836.78
2023-02-11T20:38:59.989Z,100833.22
2023-02-11T20:41:28.089Z,100819.03
2023-02-11T20:43:55.500Z,100820.78
2023-02-11T20:46:26.389Z,100825.22
2023-02-11T20:48:52.930Z,100833.22
2023-02-11T20:51:20.532Z,100840.31
2023-02-11T20:53:48.873Z,100827.88
2023-02-11T20:56:16.070Z,100823.47
2023-02-11T20:58:42.935Z,100829.66
2023-02-11T21:01:09.328Z,100826.09
2023-02-11T21:03:35.727Z,100824.34
2023-02-11T21:06:02.580Z,100824.34
2023-02-11T21:08:28.932Z,100827.00
2023-02-11T21:10:55.408Z,100825.22
2023-02-11T21:13:21.834Z,100827.91
2023-02-11T21:15:48.285Z,100832.34
2023-02-11T21:18:14.659Z,100831.44
2023-02-11T21:20:43.153Z,100838.53
2023-02-11T21:23:09.520Z,100838.53
2023-02-11T21:25:35.895Z,100842.09
2023-02-11T21:28:02.370Z,100851.84
2023-02-11T21:30:28.777Z,100849.19
2023-02-11T21:32:55.162Z,100854.53
2023-02-11T21:35:21.591Z,100865.16
2023-02-11T21:37:47.955Z,100876.72
2023-02-11T21:40:14.978Z,100867.81
2023-02-11T21:42:41.553Z,100863.38
2023-02-11T21:45:08.697Z,100871.38
2023-02-11T21:47:35.294Z,100874.06
2023-02-11T21:50:01.761Z,100873.16
2023-02-11T21:52:28.101Z,100867.84
2023-02-11T21:54:54.521Z,100873.16
2023-02-11T21:57:20.874Z,100876.72
2023-02-11T21:59:47.242Z,100876.72
2023-02-11T22:02:13.580Z,100881.16
2023-02-11T22:04:39.980Z,100883.81
2023-02-11T22:07:06.347Z,100885.59
2023-02-11T22:09:32.845Z,100892.69
2023-02-11T22:11:59.296Z,100891.81
2023-02-11T22:14:25.701Z,100891.81
2023-02-11T22:16:52.124Z,100891.78
2023-02-11T22:19:18.968Z,100887.34
2023-02-11T22:21:45.316Z,100897.13
2023-02-11T22:24:11.679Z,100910.41
2023-02-11T22:26:38.035Z,100907.75
2023-02-11T22:29:04.463Z,100914.84
2023-02-11T22:31:32.256Z,100907.75
2023-02-11T22:33:59.401Z,100919.31
2023-02-11T22:36:27.411Z,100922.88
2023-02-11T22:38:54.023Z,100920.19
2023-02-11T22:41:21.213Z,100923.75
2023-02-11T22:43:47.998Z,100918.44
2023-02-11T22:46:16.327Z,100921.97
2023-02-11T22:48:42.700Z,100934.41
2023-02-11T22:51:10.897Z,100936.16
2023-02-11T22:53:37.301Z,100938.81
2023-02-11T22:56:04.562Z,100939.72
2023-02-11T22:58:31.141Z,100939.72
2023-02-11T23:00:57.635Z,100953.03
2023-02-11T23:03:24.033Z,100948.63
2023-02-11T23:05:50.435Z,100952.16
2023-02-11T23:08:16.828Z,100955.72
2023-02-11T23:10:43.208Z,100959.25
2023-02-11T23:13:10.500Z,100951.28
2023-02-11T23:15:40.758Z,100955.72
2023-02-11T23:18:07.770Z,100958.41
2023-02-11T23:20:37.764Z,100958.38
2023-02-11T23:23:04.390Z,100953.03
2023-02-11T23:25:31.426Z,100964.59
2023-02-11T23:27:57.809Z,100968.16
2023-02-11T23:30:24.365Z,100964.59
2023-02-11T23:32:51.197Z,100969.91
2023-02-11T23:35:22.995Z,100969.94
2023-02-11T23:37:49.905Z,100975.25
2023-02-11T23:40:16.689Z,100971.72
2023-02-11T23:42:43.350Z,100973.47
2023-02-11T23:45:09.993Z,100969.91
2023-02-11T23:47:36.470Z,100961.94
2023-02-11T23:50:02.880Z,100980.59
2023-02-11T23:52:29.297Z,100975.25
2023-02-11T23:54:55.665Z,100973.47
2023-02-11T23:57:22.045Z,100971.72
2023-02-11T23:59:49.700Z,100969.03
